sensor_id;sensor_type;location;lat;lon;timestamp;P1;durP1;ratioP1;P2;durP2;ratioP2
30458;SDS011;74163;50.912;6.918;2023-11-21T00:00:26;11.10;;;8.50;;
30458;SDS011;74163;50.912;6.918;2023-11-21T00:00:59;10.63;;;8.20;;
30458;SDS011;74163;50.912;6.918;2023-11-21T00:01:31;11.20;;;7.80;;
30458;SDS011;74163;50.912;6.918;2023-11-21T00:02:03;12.07;;;8.75;;
30458;SDS011;74163;50.912;6.918;2023-11-21T00:02:35;10.93;;;8.80;;
30458;SDS011;74163;50.912;6.918;2023-11-21T00:03:07;12.13;;;8.27;;
30458;SDS011;74163;50.912;6.918;2023-11-21T00:03:38;10.50;;;8.48;;
30458;SDS011;74163;50.912;6.918;2023-11-21T00:04:10;12.60;;;8.82;;
30458;SDS011;74163;50.912;6.918;2023-11-21T00:04:42;9.43;;;7.85;;
30458;SDS011;74163;50.912;6.918;2023-11-21T00:05:14;12.45;;;8.45;;
30458;SDS011;74163;50.912;6.918;2023-11-21T00:05:47;10.38;;;8.27;;
30458;SDS011;74163;50.912;6.918;2023-11-21T00:06:19;9.60;;;7.45;;
30458;SDS011;74163;50.912;6.918;2023-11-21T00:06:51;13.68;;;8.98;;
30458;SDS011;74163;50.912;6.918;2023-11-21T00:07:23;11.05;;;8.18;;
30458;SDS011;74163;50.912;6.918;2023-11-21T00:07:54;11.00;;;8.10;;
30458;SDS011;74163;50.912;6.918;2023-11-21T00:08:26;11.65;;;8.70;;
30458;SDS011;74163;50.912;6.918;2023-11-21T00:08:59;10.65;;;7.75;;
30458;SDS011;74163;50.912;6.918;2023-11-21T00:09:31;14.15;;;9.15;;
30458;SDS011;74163;50.912;6.918;2023-11-21T00:10:03;9.90;;;7.90;;
30458;SDS011;74163;50.912;6.918;2023-11-21T00:10:35;10.70;;;7.63;;
30458;SDS011;74163;50.912;6.918;2023-11-21T00:11:07;12.43;;;9.15;;
30458;SDS011;74163;50.912;6.918;2023-11-21T00:11:38;10.95;;;8.90;;
30458;SDS011;74163;50.912;6.918;2023-11-21T00:12:10;9.40;;;7.65;;
30458;SDS011;74163;50.912;6.918;2023-11-21T00:12:42;10.38;;;8.23;;
30458;SDS011;74163;50.912;6.918;2023-11-21T00:13:14;12.00;;;8.32;;
30458;SDS011;74163;50.912;6.918;2023-11-21T00:13:46;10.05;;;8.00;;
30458;SDS011;74163;50.912;6.918;2023-11-21T00:14:21;13.75;;;9.18;;
30458;SDS011;74163;50.912;6.918;2023-11-21T00:14:53;11.13;;;8.52;;
30458;SDS011;74163;50.912;6.918;2023-11-21T00:15:28;11.00;;;8.43;;
30458;SDS011;74163;50.912;6.918;2023-11-21T00:16:02;11.88;;;9.10;;
30458;SDS011;74163;50.912;6.918;2023-11-21T00:16:34;13.32;;;8.60;;
30458;SDS011;74163;50.912;6.918;2023-11-21T00:17:06;12.77;;;9.13;;
30458;SDS011;74163;50.912;6.918;2023-11-21T00:17:38;13.93;;;9.18;;
30458;SDS011;74163;50.912;6.918;2023-11-21T00:18:10;12.23;;;9.00;;
30458;SDS011;74163;50.912;6.918;2023-11-21T00:18:41;11.50;;;9.55;;
30458;SDS011;74163;50.912;6.918;2023-11-21T00:19:13;9.60;;;8.20;;
30458;SDS011;74163;50.912;6.918;2023-11-21T00:19:45;11.60;;;8.18;;
30458;SDS011;74163;50.912;6.918;2023-11-21T00:20:17;11.02;;;7.80;;
30458;SDS011;74163;50.912;6.918;2023-11-21T00:20:49;11.85;;;9.27;;
30458;SDS011;74163;50.912;6.918;2023-11-21T00:21:21;10.48;;;8.80;;
30458;SDS011;74163;50.912;6.918;2023-11-21T00:21:52;12.75;;;8.98;;
30458;SDS011;74163;50.912;6.918;2023-11-21T00:22:24;12.88;;;9.48;;
30458;SDS011;74163;50.912;6.918;2023-11-21T00:22:56;11.93;;;9.25;;
30458;SDS011;74163;50.912;6.918;2023-11-21T00:23:28;11.63;;;9.00;;
30458;SDS011;74163;50.912;6.918;2023-11-21T00:23:59;13.48;;;9.25;;
30458;SDS011;74163;50.912;6.918;2023-11-21T00:24:31;11.35;;;8.68;;
30458;SDS011;74163;50.912;6.918;2023-11-21T00:25:03;12.73;;;9.40;;
30458;SDS011;74163;50.912;6.918;2023-11-21T00:25:35;11.77;;;9.30;;
30458;SDS011;74163;50.912;6.918;2023-11-21T00:26:07;10.40;;;8.10;;
30458;SDS011;74163;50.912;6.918;2023-11-21T00:26:39;11.50;;;9.00;;
30458;SDS011;74163;50.912;6.918;2023-11-21T00:27:11;10.02;;;8.20;;
30458;SDS011;74163;50.912;6.918;2023-11-21T00:27:43;10.63;;;9.07;;
30458;SDS011;74163;50.912;6.918;2023-11-21T00:28:15;13.98;;;9.85;;
30458;SDS011;74163;50.912;6.918;2023-11-21T00:28:47;12.48;;;9.30;;
30458;SDS011;74163;50.912;6.918;2023-11-21T00:29:19;12.68;;;9.45;;
30458;SDS011;74163;50.912;6.918;2023-11-21T00:29:51;12.65;;;9.80;;
30458;SDS011;74163;50.912;6.918;2023-11-21T00:30:22;14.00;;;10.05;;
30458;SDS011;74163;50.912;6.918;2023-11-21T00:30:54;15.38;;;10.30;;
30458;SDS011;74163;50.912;6.918;2023-11-21T00:31:27;14.10;;;10.15;;
30458;SDS011;74163;50.912;6.918;2023-11-21T00:31:59;14.40;;;9.87;;
30458;SDS011;74163;50.912;6.918;2023-11-21T00:32:31;15.30;;;10.45;;
30458;SDS011;74163;50.912;6.918;2023-11-21T00:33:03;14.02;;;10.27;;
30458;SDS011;74163;50.912;6.918;2023-11-21T00:33:34;13.27;;;9.93;;
30458;SDS011;74163;50.912;6.918;2023-11-21T00:34:06;13.07;;;8.73;;
30458;SDS011;74163;50.912;6.918;2023-11-21T00:34:38;11.80;;;9.40;;
30458;SDS011;74163;50.912;6.918;2023-11-21T00:35:10;12.98;;;9.90;;
30458;SDS011;74163;50.912;6.918;2023-11-21T00:35:42;12.20;;;9.07;;
30458;SDS011;74163;50.912;6.918;2023-11-21T00:36:14;11.52;;;9.02;;
30458;SDS011;74163;50.912;6.918;2023-11-21T00:36:45;10.45;;;8.27;;
30458;SDS011;74163;50.912;6.918;2023-11-21T00:37:17;13.13;;;9.60;;
30458;SDS011;74163;50.912;6.918;2023-11-21T00:37:49;12.65;;;9.43;;
30458;SDS011;74163;50.912;6.918;2023-11-21T00:38:21;11.13;;;8.45;;
30458;SDS011;74163;50.912;6.918;2023-11-21T00:38:53;12.35;;;8.80;;
30458;SDS011;74163;50.912;6.918;2023-11-21T00:39:24;14.95;;;10.35;;
30458;SDS011;74163;50.912;6.918;2023-11-21T00:39:56;12.85;;;10.63;;
30458;SDS011;74163;50.912;6.918;2023-11-21T00:40:28;13.30;;;10.30;;
30458;SDS011;74163;50.912;6.918;2023-11-21T00:41:00;15.43;;;10.55;;
30458;SDS011;74163;50.912;6.918;2023-11-21T00:41:32;14.10;;;10.00;;
30458;SDS011;74163;50.912;6.918;2023-11-21T00:42:04;12.00;;;9.38;;
30458;SDS011;74163;50.912;6.918;2023-11-21T00:42:36;9.45;;;8.32;;
30458;SDS011;74163;50.912;6.918;2023-11-21T00:43:07;11.02;;;9.20;;
30458;SDS011;74163;50.912;6.918;2023-11-21T00:43:39;10.93;;;8.65;;
30458;SDS011;74163;50.912;6.918;2023-11-21T00:44:11;11.63;;;9.50;;
30458;SDS011;74163;50.912;6.918;2023-11-21T00:44:43;12.23;;;9.93;;
30458;SDS011;74163;50.912;6.918;2023-11-21T00:45:15;13.18;;;10.00;;
30458;SDS011;74163;50.912;6.918;2023-11-21T00:45:47;12.00;;;10.07;;
30458;SDS011;74163;50.912;6.918;2023-11-21T00:46:18;11.13;;;9.48;;
30458;SDS011;74163;50.912;6.918;2023-11-21T00:46:52;14.98;;;9.85;;
30458;SDS011;74163;50.912;6.918;2023-11-21T00:47:23;14.07;;;9.82;;
30458;SDS011;74163;50.912;6.918;2023-11-21T00:47:55;13.95;;;10.63;;
30458;SDS011;74163;50.912;6.918;2023-11-21T00:48:27;14.40;;;10.10;;
30458;SDS011;74163;50.912;6.918;2023-11-21T00:48:59;14.60;;;10.50;;
30458;SDS011;74163;50.912;6.918;2023-11-21T00:49:30;14.02;;;9.82;;
30458;SDS011;74163;50.912;6.918;2023-11-21T00:50:02;14.88;;;10.52;;
30458;SDS011;74163;50.912;6.918;2023-11-21T00:50:35;16.42;;;11.45;;
30458;SDS011;74163;50.912;6.918;2023-11-21T00:51:07;15.25;;;11.02;;
30458;SDS011;74163;50.912;6.918;2023-11-21T00:51:38;15.07;;;10.77;;
30458;SDS011;74163;50.912;6.918;2023-11-21T00:52:10;14.35;;;11.50;;
30458;SDS011;74163;50.912;6.918;2023-11-21T00:52:42;17.38;;;11.70;;
30458;SDS011;74163;50.912;6.918;2023-11-21T00:53:14;14.93;;;11.60;;
30458;SDS011;74163;50.912;6.918;2023-11-21T00:53:46;16.13;;;12.30;;
30458;SDS011;74163;50.912;6.918;2023-11-21T00:54:18;15.45;;;11.52;;
30458;SDS011;74163;50.912;6.918;2023-11-21T00:54:50;16.77;;;12.38;;
30458;SDS011;74163;50.912;6.918;2023-11-21T00:55:22;16.65;;;12.48;;
30458;SDS011;74163;50.912;6.918;2023-11-21T00:55:55;18.33;;;12.50;;
30458;SDS011;74163;50.912;6.918;2023-11-21T00:56:26;16.83;;;12.77;;
30458;SDS011;74163;50.912;6.918;2023-11-21T00:56:58;19.23;;;12.73;;
30458;SDS011;74163;50.912;6.918;2023-11-21T00:57:30;20.98;;;13.93;;
30458;SDS011;74163;50.912;6.918;2023-11-21T00:58:02;18.45;;;13.75;;
30458;SDS011;74163;50.912;6.918;2023-11-21T00:58:34;18.23;;;13.38;;
30458;SDS011;74163;50.912;6.918;2023-11-21T00:59:05;17.67;;;13.75;;
30458;SDS011;74163;50.912;6.918;2023-11-21T00:59:37;15.80;;;12.35;;
30458;SDS011;74163;50.912;6.918;2023-11-21T01:00:10;18.35;;;13.82;;
30458;SDS011;74163;50.912;6.918;2023-11-21T01:00:42;18.75;;;13.35;;
30458;SDS011;74163;50.912;6.918;2023-11-21T01:01:14;20.58;;;14.32;;
30458;SDS011;74163;50.912;6.918;2023-11-21T01:01:45;16.00;;;13.05;;
30458;SDS011;74163;50.912;6.918;2023-11-21T01:02:19;20.30;;;14.68;;
30458;SDS011;74163;50.912;6.918;2023-11-21T01:02:51;20.38;;;14.50;;
30458;SDS011;74163;50.912;6.918;2023-11-21T01:03:23;23.20;;;14.98;;
30458;SDS011;74163;50.912;6.918;2023-11-21T01:03:55;20.33;;;14.53;;
30458;SDS011;74163;50.912;6.918;2023-11-21T01:04:27;20.92;;;15.10;;
30458;SDS011;74163;50.912;6.918;2023-11-21T01:04:59;21.52;;;14.93;;
30458;SDS011;74163;50.912;6.918;2023-11-21T01:05:30;20.30;;;14.73;;
30458;SDS011;74163;50.912;6.918;2023-11-21T01:06:02;22.50;;;15.73;;
30458;SDS011;74163;50.912;6.918;2023-11-21T01:06:34;18.90;;;14.95;;
30458;SDS011;74163;50.912;6.918;2023-11-21T01:07:06;21.65;;;15.45;;
30458;SDS011;74163;50.912;6.918;2023-11-21T01:07:38;22.48;;;15.73;;
30458;SDS011;74163;50.912;6.918;2023-11-21T01:08:10;19.33;;;14.82;;
30458;SDS011;74163;50.912;6.918;2023-11-21T01:08:43;20.55;;;15.13;;
30458;SDS011;74163;50.912;6.918;2023-11-21T01:09:15;21.13;;;15.27;;
30458;SDS011;74163;50.912;6.918;2023-11-21T01:09:46;20.90;;;15.18;;
30458;SDS011;74163;50.912;6.918;2023-11-21T01:10:20;19.08;;;14.88;;
30458;SDS011;74163;50.912;6.918;2023-11-21T01:10:52;18.45;;;13.82;;
30458;SDS011;74163;50.912;6.918;2023-11-21T01:11:24;17.38;;;14.27;;
30458;SDS011;74163;50.912;6.918;2023-11-21T01:11:56;20.38;;;14.90;;
30458;SDS011;74163;50.912;6.918;2023-11-21T01:12:27;21.63;;;14.77;;
30458;SDS011;74163;50.912;6.918;2023-11-21T01:12:59;20.85;;;15.35;;
30458;SDS011;74163;50.912;6.918;2023-11-21T01:13:31;19.27;;;14.33;;
30458;SDS011;74163;50.912;6.918;2023-11-21T01:14:03;15.85;;;13.27;;
30458;SDS011;74163;50.912;6.918;2023-11-21T01:14:35;16.92;;;12.88;;
30458;SDS011;74163;50.912;6.918;2023-11-21T01:15:07;20.77;;;14.77;;
30458;SDS011;74163;50.912;6.918;2023-11-21T01:15:39;21.77;;;14.65;;
30458;SDS011;74163;50.912;6.918;2023-11-21T01:16:11;17.42;;;14.52;;
30458;SDS011;74163;50.912;6.918;2023-11-21T01:16:44;20.30;;;15.32;;
30458;SDS011;74163;50.912;6.918;2023-11-21T01:17:16;18.00;;;14.77;;
30458;SDS011;74163;50.912;6.918;2023-11-21T01:17:49;19.55;;;14.20;;
30458;SDS011;74163;50.912;6.918;2023-11-21T01:18:21;18.02;;;13.65;;
30458;SDS011;74163;50.912;6.918;2023-11-21T01:18:53;19.85;;;15.02;;
30458;SDS011;74163;50.912;6.918;2023-11-21T01:19:25;22.25;;;16.35;;
30458;SDS011;74163;50.912;6.918;2023-11-21T01:19:57;19.58;;;15.30;;
30458;SDS011;74163;50.912;6.918;2023-11-21T01:20:29;22.77;;;16.10;;
30458;SDS011;74163;50.912;6.918;2023-11-21T01:21:01;22.27;;;16.85;;
30458;SDS011;74163;50.912;6.918;2023-11-21T01:21:33;24.00;;;16.63;;
30458;SDS011;74163;50.912;6.918;2023-11-21T01:22:04;21.33;;;15.90;;
30458;SDS011;74163;50.912;6.918;2023-11-21T01:22:36;23.50;;;17.00;;
30458;SDS011;74163;50.912;6.918;2023-11-21T01:23:08;22.05;;;16.63;;
30458;SDS011;74163;50.912;6.918;2023-11-21T01:23:40;21.80;;;15.38;;
30458;SDS011;74163;50.912;6.918;2023-11-21T01:24:12;22.15;;;17.50;;
30458;SDS011;74163;50.912;6.918;2023-11-21T01:24:44;25.10;;;16.98;;
30458;SDS011;74163;50.912;6.918;2023-11-21T01:25:16;25.17;;;16.65;;
30458;SDS011;74163;50.912;6.918;2023-11-21T01:25:47;19.73;;;15.85;;
30458;SDS011;74163;50.912;6.918;2023-11-21T01:26:21;24.30;;;17.30;;
30458;SDS011;74163;50.912;6.918;2023-11-21T01:26:52;23.23;;;17.65;;
30458;SDS011;74163;50.912;6.918;2023-11-21T01:27:24;25.77;;;17.85;;
30458;SDS011;74163;50.912;6.918;2023-11-21T01:27:56;25.70;;;18.08;;
30458;SDS011;74163;50.912;6.918;2023-11-21T01:28:28;25.58;;;17.83;;
30458;SDS011;74163;50.912;6.918;2023-11-21T01:29:01;24.90;;;17.38;;
30458;SDS011;74163;50.912;6.918;2023-11-21T01:29:33;24.90;;;17.03;;
30458;SDS011;74163;50.912;6.918;2023-11-21T01:30:05;21.98;;;17.05;;
30458;SDS011;74163;50.912;6.918;2023-11-21T01:30:38;21.55;;;16.27;;
30458;SDS011;74163;50.912;6.918;2023-11-21T01:31:10;21.75;;;16.15;;
30458;SDS011;74163;50.912;6.918;2023-11-21T01:31:42;22.48;;;16.38;;
30458;SDS011;74163;50.912;6.918;2023-11-21T01:32:14;23.45;;;17.35;;
30458;SDS011;74163;50.912;6.918;2023-11-21T01:32:46;23.73;;;16.50;;
30458;SDS011;74163;50.912;6.918;2023-11-21T01:33:19;18.92;;;14.68;;
30458;SDS011;74163;50.912;6.918;2023-11-21T01:33:51;19.10;;;14.57;;
30458;SDS011;74163;50.912;6.918;2023-11-21T01:34:23;21.80;;;16.20;;
30458;SDS011;74163;50.912;6.918;2023-11-21T01:34:55;17.90;;;14.45;;
30458;SDS011;74163;50.912;6.918;2023-11-21T01:35:26;18.98;;;14.00;;
30458;SDS011;74163;50.912;6.918;2023-11-21T01:35:58;19.00;;;13.95;;
30458;SDS011;74163;50.912;6.918;2023-11-21T01:36:30;22.58;;;15.77;;
30458;SDS011;74163;50.912;6.918;2023-11-21T01:37:02;24.55;;;16.60;;
30458;SDS011;74163;50.912;6.918;2023-11-21T01:37:34;23.15;;;16.50;;
30458;SDS011;74163;50.912;6.918;2023-11-21T01:38:06;26.83;;;17.98;;
30458;SDS011;74163;50.912;6.918;2023-11-21T01:38:38;26.25;;;18.05;;
30458;SDS011;74163;50.912;6.918;2023-11-21T01:39:10;27.73;;;17.77;;
30458;SDS011;74163;50.912;6.918;2023-11-21T01:39:42;26.25;;;18.27;;
30458;SDS011;74163;50.912;6.918;2023-11-21T01:40:13;25.47;;;18.53;;
30458;SDS011;74163;50.912;6.918;2023-11-21T01:40:46;25.00;;;17.60;;
30458;SDS011;74163;50.912;6.918;2023-11-21T01:41:18;24.83;;;17.17;;
30458;SDS011;74163;50.912;6.918;2023-11-21T01:41:49;24.25;;;17.70;;
30458;SDS011;74163;50.912;6.918;2023-11-21T01:42:22;24.48;;;18.13;;
30458;SDS011;74163;50.912;6.918;2023-11-21T01:42:54;25.42;;;17.88;;
30458;SDS011;74163;50.912;6.918;2023-11-21T01:43:26;28.83;;;18.77;;
30458;SDS011;74163;50.912;6.918;2023-11-21T01:43:58;25.42;;;18.20;;
30458;SDS011;74163;50.912;6.918;2023-11-21T01:44:30;24.67;;;17.38;;
30458;SDS011;74163;50.912;6.918;2023-11-21T01:45:01;26.60;;;17.80;;
30458;SDS011;74163;50.912;6.918;2023-11-21T01:45:33;27.45;;;18.35;;
30458;SDS011;74163;50.912;6.918;2023-11-21T01:46:05;26.83;;;18.65;;
30458;SDS011;74163;50.912;6.918;2023-11-21T01:46:37;27.42;;;18.15;;
30458;SDS011;74163;50.912;6.918;2023-11-21T01:47:10;25.95;;;17.98;;
30458;SDS011;74163;50.912;6.918;2023-11-21T01:47:42;29.45;;;19.13;;
30458;SDS011;74163;50.912;6.918;2023-11-21T01:48:16;27.58;;;18.27;;
30458;SDS011;74163;50.912;6.918;2023-11-21T01:48:49;24.60;;;17.73;;
30458;SDS011;74163;50.912;6.918;2023-11-21T01:49:22;22.73;;;16.02;;
30458;SDS011;74163;50.912;6.918;2023-11-21T01:49:54;20.25;;;15.35;;
30458;SDS011;74163;50.912;6.918;2023-11-21T01:50:26;18.55;;;14.73;;
30458;SDS011;74163;50.912;6.918;2023-11-21T01:50:58;23.40;;;16.08;;
30458;SDS011;74163;50.912;6.918;2023-11-21T01:51:30;22.42;;;16.17;;
30458;SDS011;74163;50.912;6.918;2023-11-21T01:52:01;21.55;;;15.10;;
30458;SDS011;74163;50.912;6.918;2023-11-21T01:52:34;22.27;;;16.38;;
30458;SDS011;74163;50.912;6.918;2023-11-21T01:53:07;22.58;;;16.25;;
30458;SDS011;74163;50.912;6.918;2023-11-21T01:53:39;21.33;;;16.40;;
30458;SDS011;74163;50.912;6.918;2023-11-21T01:54:11;25.70;;;17.15;;
30458;SDS011;74163;50.912;6.918;2023-11-21T01:54:48;26.23;;;17.50;;
30458;SDS011;74163;50.912;6.918;2023-11-21T01:55:20;23.33;;;16.70;;
30458;SDS011;74163;50.912;6.918;2023-11-21T01:55:55;22.60;;;15.63;;
30458;SDS011;74163;50.912;6.918;2023-11-21T01:56:30;18.00;;;14.75;;
30458;SDS011;74163;50.912;6.918;2023-11-21T01:57:02;17.48;;;13.75;;
30458;SDS011;74163;50.912;6.918;2023-11-21T01:57:35;20.60;;;16.00;;
30458;SDS011;74163;50.912;6.918;2023-11-21T01:58:07;19.17;;;14.90;;
30458;SDS011;74163;50.912;6.918;2023-11-21T01:58:40;21.88;;;14.38;;
30458;SDS011;74163;50.912;6.918;2023-11-21T01:59:13;20.23;;;14.32;;
30458;SDS011;74163;50.912;6.918;2023-11-21T01:59:49;19.88;;;14.27;;
30458;SDS011;74163;50.912;6.918;2023-11-21T02:00:24;19.27;;;14.75;;
30458;SDS011;74163;50.912;6.918;2023-11-21T02:00:56;21.42;;;14.52;;
30458;SDS011;74163;50.912;6.918;2023-11-21T02:01:27;21.88;;;15.35;;
30458;SDS011;74163;50.912;6.918;2023-11-21T02:01:59;22.23;;;15.43;;
30458;SDS011;74163;50.912;6.918;2023-11-21T02:02:31;18.35;;;14.60;;
30458;SDS011;74163;50.912;6.918;2023-11-21T02:03:03;23.50;;;16.98;;
30458;SDS011;74163;50.912;6.918;2023-11-21T02:03:35;21.30;;;16.05;;
30458;SDS011;74163;50.912;6.918;2023-11-21T02:04:08;23.08;;;16.90;;
30458;SDS011;74163;50.912;6.918;2023-11-21T02:04:40;24.52;;;16.80;;
30458;SDS011;74163;50.912;6.918;2023-11-21T02:05:12;24.63;;;17.02;;
30458;SDS011;74163;50.912;6.918;2023-11-21T02:05:45;22.67;;;16.77;;
30458;SDS011;74163;50.912;6.918;2023-11-21T02:06:17;24.90;;;16.38;;
30458;SDS011;74163;50.912;6.918;2023-11-21T02:06:50;22.10;;;16.73;;
30458;SDS011;74163;50.912;6.918;2023-11-21T02:07:24;21.38;;;15.75;;
30458;SDS011;74163;50.912;6.918;2023-11-21T02:07:56;21.65;;;16.67;;
30458;SDS011;74163;50.912;6.918;2023-11-21T02:08:28;23.13;;;16.63;;
30458;SDS011;74163;50.912;6.918;2023-11-21T02:09:00;22.15;;;15.75;;
30458;SDS011;74163;50.912;6.918;2023-11-21T02:09:32;20.90;;;14.85;;
30458;SDS011;74163;50.912;6.918;2023-11-21T02:10:04;18.65;;;14.05;;
30458;SDS011;74163;50.912;6.918;2023-11-21T02:10:37;21.65;;;15.43;;
30458;SDS011;74163;50.912;6.918;2023-11-21T02:11:09;20.02;;;14.30;;
30458;SDS011;74163;50.912;6.918;2023-11-21T02:11:40;22.60;;;15.52;;
30458;SDS011;74163;50.912;6.918;2023-11-21T02:12:12;22.10;;;15.40;;
30458;SDS011;74163;50.912;6.918;2023-11-21T02:12:44;19.77;;;14.68;;
30458;SDS011;74163;50.912;6.918;2023-11-21T02:13:16;20.37;;;15.30;;
30458;SDS011;74163;50.912;6.918;2023-11-21T02:13:48;19.42;;;14.45;;
30458;SDS011;74163;50.912;6.918;2023-11-21T02:14:20;18.97;;;15.20;;
30458;SDS011;74163;50.912;6.918;2023-11-21T02:14:51;23.25;;;16.42;;
30458;SDS011;74163;50.912;6.918;2023-11-21T02:15:24;21.75;;;15.27;;
30458;SDS011;74163;50.912;6.918;2023-11-21T02:15:56;21.67;;;15.63;;
30458;SDS011;74163;50.912;6.918;2023-11-21T02:16:27;22.33;;;15.68;;
30458;SDS011;74163;50.912;6.918;2023-11-21T02:16:59;20.90;;;15.20;;
30458;SDS011;74163;50.912;6.918;2023-11-21T02:17:31;21.63;;;15.07;;
30458;SDS011;74163;50.912;6.918;2023-11-21T02:18:03;22.55;;;15.68;;
30458;SDS011;74163;50.912;6.918;2023-11-21T02:18:35;22.83;;;15.95;;
30458;SDS011;74163;50.912;6.918;2023-11-21T02:19:09;22.45;;;16.45;;
30458;SDS011;74163;50.912;6.918;2023-11-21T02:19:45;25.85;;;15.73;;
30458;SDS011;74163;50.912;6.918;2023-11-21T02:20:17;23.27;;;16.30;;
30458;SDS011;74163;50.912;6.918;2023-11-21T02:20:49;22.50;;;16.33;;
30458;SDS011;74163;50.912;6.918;2023-11-21T02:21:21;18.48;;;14.02;;
30458;SDS011;74163;50.912;6.918;2023-11-21T02:21:52;22.38;;;15.65;;
30458;SDS011;74163;50.912;6.918;2023-11-21T02:22:25;22.08;;;15.65;;
30458;SDS011;74163;50.912;6.918;2023-11-21T02:23:03;17.42;;;13.32;;
30458;SDS011;74163;50.912;6.918;2023-11-21T02:23:35;15.70;;;12.52;;
30458;SDS011;74163;50.912;6.918;2023-11-21T02:24:07;21.77;;;14.55;;
30458;SDS011;74163;50.912;6.918;2023-11-21T02:24:39;20.35;;;14.82;;
30458;SDS011;74163;50.912;6.918;2023-11-21T02:25:12;21.67;;;15.45;;
30458;SDS011;74163;50.912;6.918;2023-11-21T02:25:44;20.52;;;15.60;;
30458;SDS011;74163;50.912;6.918;2023-11-21T02:26:16;20.95;;;14.70;;
30458;SDS011;74163;50.912;6.918;2023-11-21T02:26:49;21.90;;;15.18;;
30458;SDS011;74163;50.912;6.918;2023-11-21T02:27:21;25.95;;;17.23;;
30458;SDS011;74163;50.912;6.918;2023-11-21T02:27:55;19.23;;;15.25;;
30458;SDS011;74163;50.912;6.918;2023-11-21T02:28:28;17.38;;;13.55;;
30458;SDS011;74163;50.912;6.918;2023-11-21T02:28:59;20.53;;;15.37;;
30458;SDS011;74163;50.912;6.918;2023-11-21T02:29:31;23.52;;;16.80;;
30458;SDS011;74163;50.912;6.918;2023-11-21T02:30:03;23.57;;;16.97;;
30458;SDS011;74163;50.912;6.918;2023-11-21T02:30:36;25.85;;;17.58;;
30458;SDS011;74163;50.912;6.918;2023-11-21T02:31:07;25.10;;;16.90;;
30458;SDS011;74163;50.912;6.918;2023-11-21T02:31:39;29.75;;;18.77;;
30458;SDS011;74163;50.912;6.918;2023-11-21T02:32:11;25.13;;;17.17;;
30458;SDS011;74163;50.912;6.918;2023-11-21T02:32:43;29.67;;;19.58;;
30458;SDS011;74163;50.912;6.918;2023-11-21T02:33:19;28.50;;;18.85;;
30458;SDS011;74163;50.912;6.918;2023-11-21T02:33:51;24.65;;;17.30;;
30458;SDS011;74163;50.912;6.918;2023-11-21T02:34:23;24.98;;;17.30;;
30458;SDS011;74163;50.912;6.918;2023-11-21T02:34:55;22.60;;;16.00;;
30458;SDS011;74163;50.912;6.918;2023-11-21T02:35:28;25.10;;;18.38;;
30458;SDS011;74163;50.912;6.918;2023-11-21T02:35:59;24.35;;;15.80;;
30458;SDS011;74163;50.912;6.918;2023-11-21T02:36:31;23.83;;;17.30;;
30458;SDS011;74163;50.912;6.918;2023-11-21T02:37:03;27.80;;;18.50;;
30458;SDS011;74163;50.912;6.918;2023-11-21T02:37:36;24.77;;;18.30;;
30458;SDS011;74163;50.912;6.918;2023-11-21T02:38:10;27.10;;;18.25;;
30458;SDS011;74163;50.912;6.918;2023-11-21T02:38:41;27.55;;;19.55;;
30458;SDS011;74163;50.912;6.918;2023-11-21T02:39:13;25.65;;;18.05;;
30458;SDS011;74163;50.912;6.918;2023-11-21T02:39:45;27.42;;;18.45;;
30458;SDS011;74163;50.912;6.918;2023-11-21T02:40:17;24.95;;;17.70;;
30458;SDS011;74163;50.912;6.918;2023-11-21T02:40:49;23.00;;;16.88;;
30458;SDS011;74163;50.912;6.918;2023-11-21T02:41:21;21.13;;;16.80;;
30458;SDS011;74163;50.912;6.918;2023-11-21T02:41:53;26.15;;;17.05;;
30458;SDS011;74163;50.912;6.918;2023-11-21T02:42:25;27.38;;;18.67;;
30458;SDS011;74163;50.912;6.918;2023-11-21T02:42:57;24.10;;;17.48;;
30458;SDS011;74163;50.912;6.918;2023-11-21T02:43:29;22.77;;;16.52;;
30458;SDS011;74163;50.912;6.918;2023-11-21T02:44:01;24.67;;;17.17;;
30458;SDS011;74163;50.912;6.918;2023-11-21T02:44:33;19.63;;;15.70;;
30458;SDS011;74163;50.912;6.918;2023-11-21T02:45:06;21.92;;;16.25;;
30458;SDS011;74163;50.912;6.918;2023-11-21T02:45:38;22.15;;;16.15;;
30458;SDS011;74163;50.912;6.918;2023-11-21T02:46:10;23.20;;;15.65;;
30458;SDS011;74163;50.912;6.918;2023-11-21T02:46:43;21.38;;;16.00;;
30458;SDS011;74163;50.912;6.918;2023-11-21T02:47:15;22.77;;;16.20;;
30458;SDS011;74163;50.912;6.918;2023-11-21T02:47:47;22.55;;;16.20;;
30458;SDS011;74163;50.912;6.918;2023-11-21T02:48:19;19.23;;;14.75;;
30458;SDS011;74163;50.912;6.918;2023-11-21T02:48:51;22.02;;;15.65;;
30458;SDS011;74163;50.912;6.918;2023-11-21T02:49:23;18.52;;;14.35;;
30458;SDS011;74163;50.912;6.918;2023-11-21T02:49:55;19.60;;;14.65;;
30458;SDS011;74163;50.912;6.918;2023-11-21T02:50:27;18.48;;;14.25;;
30458;SDS011;74163;50.912;6.918;2023-11-21T02:50:59;21.75;;;15.93;;
30458;SDS011;74163;50.912;6.918;2023-11-21T02:51:30;18.27;;;13.75;;
30458;SDS011;74163;50.912;6.918;2023-11-21T02:52:03;18.42;;;14.30;;
30458;SDS011;74163;50.912;6.918;2023-11-21T02:52:35;21.25;;;14.82;;
30458;SDS011;74163;50.912;6.918;2023-11-21T02:53:07;20.02;;;14.30;;
30458;SDS011;74163;50.912;6.918;2023-11-21T02:53:41;19.60;;;14.75;;
30458;SDS011;74163;50.912;6.918;2023-11-21T02:54:12;21.33;;;14.45;;
30458;SDS011;74163;50.912;6.918;2023-11-21T02:54:44;17.55;;;12.30;;
30458;SDS011;74163;50.912;6.918;2023-11-21T02:55:16;18.80;;;14.57;;
30458;SDS011;74163;50.912;6.918;2023-11-21T02:55:48;22.13;;;15.88;;
30458;SDS011;74163;50.912;6.918;2023-11-21T02:56:20;20.10;;;15.45;;
30458;SDS011;74163;50.912;6.918;2023-11-21T02:56:51;17.77;;;13.10;;
30458;SDS011;74163;50.912;6.918;2023-11-21T02:57:23;19.83;;;13.20;;
30458;SDS011;74163;50.912;6.918;2023-11-21T02:57:55;16.30;;;12.82;;
30458;SDS011;74163;50.912;6.918;2023-11-21T02:58:27;16.73;;;12.48;;
30458;SDS011;74163;50.912;6.918;2023-11-21T02:58:59;15.45;;;12.80;;
30458;SDS011;74163;50.912;6.918;2023-11-21T02:59:31;15.52;;;12.77;;
30458;SDS011;74163;50.912;6.918;2023-11-21T03:00:03;18.30;;;13.02;;
30458;SDS011;74163;50.912;6.918;2023-11-21T03:00:36;15.45;;;12.07;;
30458;SDS011;74163;50.912;6.918;2023-11-21T03:01:07;18.85;;;12.88;;
30458;SDS011;74163;50.912;6.918;2023-11-21T03:01:40;17.35;;;13.02;;
30458;SDS011;74163;50.912;6.918;2023-11-21T03:02:12;23.10;;;15.43;;
30458;SDS011;74163;50.912;6.918;2023-11-21T03:02:44;16.77;;;12.75;;
30458;SDS011;74163;50.912;6.918;2023-11-21T03:03:17;18.65;;;13.85;;
30458;SDS011;74163;50.912;6.918;2023-11-21T03:03:49;18.05;;;13.23;;
30458;SDS011;74163;50.912;6.918;2023-11-21T03:04:21;18.90;;;13.48;;
30458;SDS011;74163;50.912;6.918;2023-11-21T03:04:52;20.63;;;15.40;;
30458;SDS011;74163;50.912;6.918;2023-11-21T03:05:24;18.17;;;13.77;;
30458;SDS011;74163;50.912;6.918;2023-11-21T03:05:56;19.83;;;14.13;;
30458;SDS011;74163;50.912;6.918;2023-11-21T03:06:28;20.77;;;15.05;;
30458;SDS011;74163;50.912;6.918;2023-11-21T03:06:59;18.95;;;13.63;;
30458;SDS011;74163;50.912;6.918;2023-11-21T03:07:31;19.73;;;14.98;;
30458;SDS011;74163;50.912;6.918;2023-11-21T03:08:03;16.02;;;12.98;;
30458;SDS011;74163;50.912;6.918;2023-11-21T03:08:36;17.80;;;13.20;;